createdAt,value
2022-12-11T00:01:01.606Z,16.87
2022-12-11T00:03:31.368Z,16.86
2022-12-11T00:06:00.719Z,16.83
2022-12-11T00:08:30.516Z,16.77
2022-12-11T00:11:00.100Z,16.78
2022-12-11T00:13:30.234Z,16.83
2022-12-11T00:16:02.915Z,16.85
2022-12-11T00:18:32.270Z,16.98
2022-12-11T00:21:06.514Z,16.85
2022-12-11T00:23:39.917Z,16.80
2022-12-11T00:26:13.748Z,16.79
2022-12-11T00:28:44.929Z,16.74
2022-12-11T00:31:20.507Z,16.79
2022-12-11T00:33:51.566Z,16.74
2022-12-11T00:36:24.327Z,16.72
2022-12-11T00:38:55.263Z,16.64
2022-12-11T00:41:24.974Z,16.53
2022-12-11T00:43:54.599Z,16.50
2022-12-11T00:46:24.537Z,16.55
2022-12-11T00:48:54.766Z,16.59
2022-12-11T00:51:24.843Z,16.54
2022-12-11T00:53:54.784Z,16.54
2022-12-11T00:56:26.285Z,16.51
2022-12-11T00:58:56.185Z,16.42
2022-12-11T01:01:27.124Z,16.49
2022-12-11T01:03:57.093Z,16.43
2022-12-11T01:06:28.193Z,16.43
2022-12-11T01:09:16.884Z,16.37
2022-12-11T01:11:46.427Z,16.34
2022-12-11T01:14:16.240Z,16.29
2022-12-11T01:16:45.906Z,16.35
2022-12-11T01:19:15.935Z,16.31
2022-12-11T01:21:45.717Z,16.22
2022-12-11T01:24:15.407Z,16.11
2022-12-11T01:26:44.761Z,16.22
2022-12-11T01:29:14.671Z,16.22
2022-12-11T01:31:44.075Z,16.22
2022-12-11T01:34:13.727Z,16.19
2022-12-11T01:36:43.505Z,16.20
2022-12-11T01:39:13.245Z,16.14
2022-12-11T01:41:43.032Z,16.05
2022-12-11T01:44:18.467Z,16.03
2022-12-11T01:46:48.214Z,16.04
2022-12-11T01:49:20.028Z,16.09
2022-12-11T01:52:00.266Z,16.02
2022-12-11T01:54:31.104Z,16.05
2022-12-11T01:57:06.937Z,16.14
2022-12-11T01:59:40.264Z,16.11
2022-12-11T02:02:22.047Z,16.18
2022-12-11T02:04:51.897Z,16.00
2022-12-11T02:07:21.333Z,16.09
2022-12-11T02:09:52.032Z,16.09
2022-12-11T02:12:45.896Z,16.15
2022-12-11T02:15:30.778Z,16.06
2022-12-11T02:18:30.705Z,16.31
2022-12-11T02:21:12.365Z,16.21
2022-12-11T02:23:51.206Z,16.25
2022-12-11T02:26:51.610Z,16.27
2022-12-11T02:29:27.656Z,16.27
2022-12-11T02:32:21.067Z,16.25
2022-12-11T02:35:02.568Z,16.38
2022-12-11T02:37:38.449Z,16.35
2022-12-11T02:40:12.646Z,16.43
2022-12-11T02:42:45.390Z,16.46
2022-12-11T02:45:16.348Z,16.45
2022-12-11T02:47:49.814Z,16.46
2022-12-11T02:50:23.067Z,16.44
2022-12-11T02:52:57.482Z,16.36
2022-12-11T02:55:29.904Z,16.53
2022-12-11T02:58:22.466Z,16.63
2022-12-11T03:00:52.908Z,16.71
2022-12-11T03:03:23.268Z,16.66
2022-12-11T03:05:53.219Z,16.63
2022-12-11T03:08:22.623Z,16.66
2022-12-11T03:10:52.579Z,16.67
2022-12-11T03:13:24.311Z,16.86
2022-12-11T03:16:25.101Z,16.99
2022-12-11T03:19:27.178Z,17.11
2022-12-11T03:22:25.951Z,16.97
2022-12-11T03:25:04.535Z,17.03
2022-12-11T03:28:02.158Z,17.19
2022-12-11T03:30:37.516Z,17.08
2022-12-11T03:33:31.162Z,16.94
2022-12-11T03:36:09.074Z,16.90
2022-12-11T03:39:01.306Z,17.20
2022-12-11T03:41:35.579Z,17.29
2022-12-11T03:44:05.716Z,17.24
2022-12-11T03:46:40.050Z,17.45
2022-12-11T03:49:24.500Z,17.53
2022-12-11T03:51:56.624Z,17.53
2022-12-11T03:54:27.272Z,17.51
2022-12-11T03:56:59.482Z,17.34
2022-12-11T03:59:29.584Z,17.55
2022-12-11T04:01:59.488Z,17.56
2022-12-11T04:04:31.864Z,17.67
2022-12-11T04:07:01.510Z,17.80
2022-12-11T04:09:31.215Z,17.68
2022-12-11T04:12:01.355Z,18.00
2022-12-11T04:14:49.375Z,17.83
2022-12-11T04:17:39.255Z,18.07
2022-12-11T04:20:27.441Z,18.20
2022-12-11T04:23:15.968Z,18.28
2022-12-11T04:25:45.849Z,18.12
2022-12-11T04:28:15.311Z,18.22
2022-12-11T04:30:51.133Z,18.47
2022-12-11T04:33:20.634Z,18.48
2022-12-11T04:35:50.740Z,18.42
2022-12-11T04:38:20.121Z,18.75
2022-12-11T04:40:49.800Z,18.82
2022-12-11T04:43:19.817Z,18.88
2022-12-11T04:45:49.262Z,18.97
2022-12-11T04:48:19.036Z,19.09
2022-12-11T04:50:48.497Z,19.23
2022-12-11T04:53:19.003Z,19.35
2022-12-11T04:55:48.951Z,19.26
2022-12-11T04:58:18.897Z,19.41
2022-12-11T05:00:49.055Z,19.51
2022-12-11T05:03:20.144Z,19.43
2022-12-11T05:05:54.744Z,19.62
2022-12-11T05:08:25.489Z,19.66
2022-12-11T05:10:59.801Z,19.74
2022-12-11T05:13:32.220Z,19.75
2022-12-11T05:16:04.641Z,19.94
2022-12-11T05:18:34.731Z,20.10
2022-12-11T05:21:07.443Z,20.27
2022-12-11T05:23:38.862Z,20.10
2022-12-11T05:26:12.430Z,20.35
2022-12-11T05:28:42.544Z,20.49
2022-12-11T05:31:22.185Z,20.67
2022-12-11T05:33:54.104Z,20.67
2022-12-11T05:36:30.171Z,20.80
2022-12-11T05:39:01.568Z,20.71
2022-12-11T05:41:33.767Z,20.84
2022-12-11T05:44:03.723Z,21.21
2022-12-11T05:46:33.361Z,20.92
2022-12-11T05:49:03.534Z,21.10
2022-12-11T05:51:37.427Z,21.13
2022-12-11T05:54:07.415Z,21.20
2022-12-11T05:56:37.542Z,21.30
2022-12-11T05:59:08.101Z,21.58
2022-12-11T06:01:42.179Z,21.67
2022-12-11T06:04:14.370Z,21.70
2022-12-11T06:06:45.170Z,21.63
2022-12-11T06:09:18.960Z,21.77
2022-12-11T06:11:49.141Z,21.78
2022-12-11T06:14:21.760Z,21.80
2022-12-11T06:16:51.699Z,22.09
2022-12-11T06:19:22.006Z,22.00
2022-12-11T06:21:53.116Z,22.03
2022-12-11T06:24:23.219Z,22.23
2022-12-11T06:26:53.647Z,22.40
2022-12-11T06:29:24.207Z,22.46
2022-12-11T06:31:54.464Z,22.42
2022-12-11T06:34:24.513Z,22.49
2022-12-11T06:36:54.955Z,22.53
2022-12-11T06:39:25.589Z,22.56
2022-12-11T06:41:55.810Z,22.62
2022-12-11T06:44:26.015Z,22.73
2022-12-11T06:46:56.375Z,22.80
2022-12-11T06:49:26.093Z,22.83
2022-12-11T06:51:55.731Z,22.99
2022-12-11T06:54:29.120Z,23.09
2022-12-11T06:56:59.139Z,22.89
2022-12-11T06:59:29.068Z,23.08
2022-12-11T07:01:59.086Z,23.33
2022-12-11T07:04:29.054Z,23.24
2022-12-11T07:06:59.133Z,23.38
2022-12-11T07:09:29.437Z,23.49
2022-12-11T07:11:59.220Z,23.40
2022-12-11T07:14:28.812Z,23.60
2022-12-11T07:16:59.339Z,23.56
2022-12-11T07:19:28.980Z,23.52
2022-12-11T07:21:58.571Z,23.77
2022-12-11T07:24:28.265Z,23.85
2022-12-11T07:26:57.922Z,23.82
2022-12-11T07:29:27.761Z,23.94
2022-12-11T07:31:57.158Z,23.92
2022-12-11T07:34:26.674Z,24.00
2022-12-11T07:36:56.599Z,23.95
2022-12-11T07:39:26.295Z,24.11
2022-12-11T07:41:56.544Z,24.20
2022-12-11T07:44:26.199Z,24.11
2022-12-11T07:46:55.518Z,24.26
2022-12-11T07:49:25.340Z,24.18
2022-12-11T07:51:54.695Z,24.25
2022-12-11T07:54:24.363Z,24.31
2022-12-11T07:56:54.306Z,24.30
2022-12-11T07:59:23.923Z,24.38
2022-12-11T08:01:53.530Z,24.40
2022-12-11T08:04:24.061Z,24.44
2022-12-11T08:06:54.199Z,24.32
2022-12-11T08:09:23.690Z,24.58
2022-12-11T08:11:54.614Z,24.62
2022-12-11T08:14:24.156Z,24.58
2022-12-11T08:16:54.416Z,24.63
2022-12-11T08:19:24.272Z,24.71
2022-12-11T08:21:53.947Z,24.60
2022-12-11T08:24:24.419Z,24.64
2022-12-11T08:26:53.857Z,24.73
2022-12-11T08:29:24.357Z,24.87
2022-12-11T08:31:53.900Z,24.88
2022-12-11T08:34:23.396Z,24.91
2022-12-11T08:36:53.771Z,24.95
2022-12-11T08:39:23.676Z,24.95
2022-12-11T08:41:52.990Z,24.94
2022-12-11T08:44:26.368Z,24.96
2022-12-11T08:46:56.534Z,25.04
2022-12-11T08:49:28.665Z,25.04
2022-12-11T08:52:02.494Z,25.04
2022-12-11T08:54:33.726Z,25.13
2022-12-11T08:57:03.731Z,25.10
2022-12-11T08:59:33.385Z,25.05
2022-12-11T09:02:03.016Z,25.14
2022-12-11T09:04:32.393Z,25.15
2022-12-11T09:07:02.156Z,25.13
2022-12-11T09:09:31.989Z,25.20
2022-12-11T09:12:02.821Z,25.23
2022-12-11T09:14:32.898Z,25.15
2022-12-11T09:17:02.461Z,25.19
2022-12-11T09:19:32.636Z,25.13
2022-12-11T09:22:02.787Z,25.19
2022-12-11T09:24:32.403Z,25.23
2022-12-11T09:27:01.916Z,25.26
2022-12-11T09:29:32.106Z,25.24
2022-12-11T09:32:02.022Z,25.18
2022-12-11T09:34:31.530Z,25.16
2022-12-11T09:37:01.165Z,25.17
2022-12-11T09:39:30.814Z,25.11
2022-12-11T09:42:16.651Z,25.25
2022-12-11T09:44:58.488Z,25.34
2022-12-11T09:47:33.597Z,25.10
2022-12-11T09:50:12.915Z,25.23
2022-12-11T09:52:58.481Z,25.12
2022-12-11T09:55:38.293Z,25.05
2022-12-11T09:58:33.218Z,25.10
2022-12-11T10:01:11.941Z,25.07
2022-12-11T10:04:12.859Z,25.10
2022-12-11T10:07:32.045Z,25.01
2022-12-11T10:10:25.747Z,24.84
2022-12-11T10:13:17.545Z,25.01
2022-12-11T10:16:00.900Z,24.95
2022-12-11T10:18:32.925Z,24.82
2022-12-11T10:21:04.779Z,24.80
2022-12-11T10:23:56.824Z,24.84
2022-12-11T10:26:26.470Z,24.69
2022-12-11T10:29:00.841Z,24.75
2022-12-11T10:31:43.413Z,24.74
2022-12-11T10:34:20.082Z,24.68
2022-12-11T10:36:49.928Z,24.57
2022-12-11T10:39:24.564Z,24.63
2022-12-11T10:41:56.698Z,24.50
2022-12-11T10:44:32.304Z,24.56
2022-12-11T10:47:15.674Z,24.55
2022-12-11T10:49:54.044Z,24.45
2022-12-11T10:52:33.322Z,24.50
2022-12-11T10:55:09.643Z,24.54
2022-12-11T10:57:40.913Z,24.44
2022-12-11T11:00:32.262Z,24.48
2022-12-11T11:03:03.742Z,24.36
2022-12-11T11:05:39.398Z,24.27
2022-12-11T11:08:11.689Z,24.27
2022-12-11T11:10:57.148Z,24.31
2022-12-11T11:13:30.183Z,24.21
2022-12-11T11:16:05.454Z,24.18
2022-12-11T11:18:36.034Z,24.06
2022-12-11T11:21:06.939Z,24.00
2022-12-11T11:23:39.821Z,23.91
2022-12-11T11:26:14.250Z,23.85
2022-12-11T11:28:50.933Z,23.87
2022-12-11T11:31:32.134Z,23.82
2022-12-11T11:34:08.936Z,23.82
2022-12-11T11:36:40.627Z,23.67
2022-12-11T11:39:19.815Z,23.74
2022-12-11T11:41:58.893Z,23.66
2022-12-11T11:44:40.348Z,23.61
2022-12-11T11:47:19.418Z,23.56
2022-12-11T11:50:01.107Z,23.49
2022-12-11T11:53:04.115Z,23.42
2022-12-11T11:55:51.414Z,23.25
2022-12-11T11:58:30.258Z,23.17
2022-12-11T12:00:59.888Z,23.00
2022-12-11T12:03:31.851Z,22.98
2022-12-11T12:06:29.107Z,23.04
2022-12-11T12:09:43.851Z,23.01
2022-12-11T12:12:41.237Z,22.96
2022-12-11T12:15:39.739Z,22.78
2022-12-11T12:18:30.665Z,22.79
2022-12-11T12:21:29.176Z,22.71
2022-12-11T12:23:58.805Z,22.52
2022-12-11T12:26:35.175Z,22.55
2022-12-11T12:29:22.979Z,22.61
2022-12-11T12:32:07.090Z,22.53
2022-12-11T12:34:54.488Z,22.34
2022-12-11T12:37:51.128Z,22.48
2022-12-11T12:40:46.354Z,22.44
2022-12-11T12:43:28.655Z,22.38
2022-12-11T12:46:35.317Z,22.26
2022-12-11T12:49:09.216Z,22.05
2022-12-11T12:51:40.296Z,21.85
2022-12-11T12:54:15.644Z,21.94
2022-12-11T12:56:48.342Z,21.87
2022-12-11T12:59:21.927Z,22.04
2022-12-11T13:02:04.803Z,21.92
2022-12-11T13:04:55.898Z,21.86
2022-12-11T13:07:32.477Z,21.82
2022-12-11T13:10:43.591Z,21.77
2022-12-11T13:13:36.923Z,21.82
2022-12-11T13:16:18.779Z,21.76
2022-12-11T13:18:51.727Z,21.65
2022-12-11T13:21:30.282Z,21.62
2022-12-11T13:24:29.762Z,21.66
2022-12-11T13:27:13.908Z,21.65
2022-12-11T13:29:44.525Z,21.53
2022-12-11T13:32:20.116Z,21.58
2022-12-11T13:35:02.050Z,21.61
2022-12-11T13:37:47.167Z,21.52
2022-12-11T13:40:27.745Z,21.50
2022-12-11T13:43:07.456Z,21.45
2022-12-11T13:45:46.629Z,21.37
2022-12-11T13:48:41.709Z,21.35
2022-12-11T13:51:19.755Z,21.35
2022-12-11T13:53:50.129Z,21.21
2022-12-11T13:56:24.018Z,21.30
2022-12-11T13:58:53.621Z,21.21
2022-12-11T14:01:28.782Z,21.28
2022-12-11T14:04:06.024Z,21.34
2022-12-11T14:06:38.161Z,21.26
2022-12-11T14:09:09.861Z,21.24
2022-12-11T14:11:44.545Z,21.26
2022-12-11T14:14:30.488Z,21.30
2022-12-11T14:17:01.145Z,21.19
2022-12-11T14:19:31.225Z,21.16
2022-12-11T14:22:09.194Z,21.33
2022-12-11T14:24:49.762Z,21.21
2022-12-11T14:27:20.898Z,21.24
2022-12-11T14:29:51.286Z,21.17
2022-12-11T14:32:47.457Z,21.35
2022-12-11T14:35:32.865Z,21.32
2022-12-11T14:38:15.717Z,21.25
2022-12-11T14:40:50.824Z,21.17
2022-12-11T14:43:29.165Z,21.21
2022-12-11T14:46:07.912Z,21.18
2022-12-11T14:48:49.447Z,21.22
2022-12-11T14:51:21.044Z,21.08
2022-12-11T14:53:54.296Z,21.10
2022-12-11T14:56:27.462Z,21.08
2022-12-11T14:59:03.141Z,21.09
2022-12-11T15:01:37.419Z,21.13
2022-12-11T15:04:21.599Z,21.11
2022-12-11T15:06:53.599Z,21.05
2022-12-11T15:09:31.116Z,21.10
2022-12-11T15:12:23.408Z,21.18
2022-12-11T15:15:02.193Z,21.04
2022-12-11T15:17:34.602Z,20.94
2022-12-11T15:20:12.923Z,21.01
2022-12-11T15:22:45.851Z,20.94
2022-12-11T15:25:28.673Z,20.96
2022-12-11T15:27:59.866Z,21.00
2022-12-11T15:30:33.527Z,20.81
2022-12-11T15:33:13.050Z,20.85
2022-12-11T15:35:58.375Z,20.87
2022-12-11T15:38:34.310Z,20.80
2022-12-11T15:41:05.690Z,20.78
2022-12-11T15:43:39.395Z,20.77
2022-12-11T15:46:10.168Z,20.71
2022-12-11T15:48:39.971Z,20.63
2022-12-11T15:51:10.717Z,20.61
2022-12-11T15:53:40.658Z,20.63
2022-12-11T15:56:18.002Z,20.77
2022-12-11T15:58:50.157Z,20.68
2022-12-11T16:01:20.090Z,20.58
2022-12-11T16:03:51.666Z,20.60
2022-12-11T16:06:21.922Z,20.61
2022-12-11T16:08:51.961Z,20.61
2022-12-11T16:11:22.519Z,20.60
2022-12-11T16:13:52.854Z,20.59
2022-12-11T16:16:23.064Z,20.60
2022-12-11T16:18:53.713Z,20.64
2022-12-11T16:21:30.349Z,20.59
2022-12-11T16:24:00.974Z,20.54
2022-12-11T16:26:31.371Z,20.54
2022-12-11T16:29:02.999Z,20.54
2022-12-11T16:31:34.564Z,20.47
2022-12-11T16:34:06.413Z,20.45
2022-12-11T16:36:38.193Z,20.49
2022-12-11T16:39:09.990Z,20.45
2022-12-11T16:41:40.754Z,20.43
2022-12-11T16:44:11.937Z,20.44
2022-12-11T16:46:42.202Z,20.40
2022-12-11T16:49:12.756Z,20.39
2022-12-11T16:51:44.198Z,20.38
2022-12-11T16:54:15.199Z,20.36
2022-12-11T16:56:45.610Z,20.31
2022-12-11T16:59:15.842Z,20.32
2022-12-11T17:01:46.236Z,20.17
2022-12-11T17:04:16.635Z,20.24
2022-12-11T17:06:47.379Z,20.16
2022-12-11T17:09:17.499Z,20.17
2022-12-11T17:11:47.218Z,20.12
2022-12-11T17:14:16.904Z,20.12
2022-12-11T17:16:47.242Z,20.13
2022-12-11T17:19:18.475Z,20.13
2022-12-11T17:21:51.817Z,20.08
2022-12-11T17:24:22.545Z,20.05
2022-12-11T17:26:52.506Z,20.01
2022-12-11T17:29:23.356Z,19.99
2022-12-11T17:31:53.150Z,19.88
2022-12-11T17:34:23.752Z,19.88
2022-12-11T17:36:53.974Z,19.84
2022-12-11T17:39:24.533Z,19.82
2022-12-11T17:41:54.407Z,19.78
2022-12-11T17:44:24.467Z,19.72
2022-12-11T17:46:54.619Z,19.69
2022-12-11T17:49:23.981Z,19.65
2022-12-11T17:51:56.803Z,19.56
2022-12-11T17:54:27.477Z,19.57
2022-12-11T17:56:57.753Z,19.53
2022-12-11T17:59:27.577Z,19.47
2022-12-11T18:01:57.288Z,19.22
2022-12-11T18:04:27.378Z,19.19
2022-12-11T18:06:57.440Z,19.23
2022-12-11T18:09:27.020Z,19.22
2022-12-11T18:11:56.678Z,19.25
2022-12-11T18:14:26.834Z,19.29
2022-12-11T18:16:56.428Z,19.27
2022-12-11T18:19:28.339Z,19.25
2022-12-11T18:21:58.218Z,19.15
2022-12-11T18:24:32.997Z,18.96
2022-12-11T18:27:03.674Z,18.94
2022-12-11T18:29:33.495Z,18.95
2022-12-11T18:32:02.889Z,18.94
2022-12-11T18:34:32.724Z,18.93
2022-12-11T18:37:03.572Z,18.96
2022-12-11T18:39:33.344Z,18.90
2022-12-11T18:42:31.793Z,18.87
2022-12-11T18:44:54.621Z,18.80
2022-12-11T18:47:24.793Z,18.81
2022-12-11T18:49:54.130Z,18.81
2022-12-11T18:52:24.029Z,18.83
2022-12-11T18:54:53.688Z,18.81
2022-12-11T18:57:23.320Z,18.85
2022-12-11T18:59:54.492Z,18.93
2022-12-11T19:02:24.345Z,18.96
2022-12-11T19:04:54.119Z,19.00
2022-12-11T19:07:23.736Z,18.98
2022-12-11T19:09:53.573Z,18.93
2022-12-11T19:12:23.290Z,18.91
2022-12-11T19:14:52.611Z,18.93
2022-12-11T19:17:22.423Z,18.92
2022-12-11T19:19:51.748Z,18.91
2022-12-11T19:22:21.722Z,18.91
2022-12-11T19:24:51.709Z,18.88
2022-12-11T19:27:21.340Z,18.87
2022-12-11T19:29:51.348Z,18.90
2022-12-11T19:32:21.007Z,18.90
2022-12-11T19:34:55.346Z,18.97
2022-12-11T19:37:25.029Z,18.78
2022-12-11T19:39:54.704Z,18.77
2022-12-11T19:42:24.193Z,18.78
2022-12-11T19:44:53.741Z,18.82
2022-12-11T19:47:23.510Z,18.77
2022-12-11T19:49:53.186Z,18.78
2022-12-11T19:52:23.213Z,18.80
2022-12-11T19:54:52.858Z,18.75
2022-12-11T19:57:22.458Z,18.76
2022-12-11T19:59:57.065Z,18.68
2022-12-11T20:02:27.738Z,18.69
2022-12-11T20:04:57.718Z,18.72
2022-12-11T20:07:30.671Z,18.74
2022-12-11T20:10:01.738Z,18.69
2022-12-11T20:12:31.567Z,18.64
2022-12-11T20:15:00.895Z,18.66
2022-12-11T20:17:31.025Z,18.65
2022-12-11T20:20:01.040Z,18.70
2022-12-11T20:22:31.056Z,18.61
2022-12-11T20:25:00.682Z,18.64
2022-12-11T20:27:30.244Z,18.61
2022-12-11T20:29:59.931Z,18.61
2022-12-11T20:32:29.764Z,18.63
2022-12-11T20:34:59.686Z,18.64
2022-12-11T20:37:30.452Z,18.63
2022-12-11T20:40:00.078Z,18.62
2022-12-11T20:42:29.629Z,18.57
2022-12-11T20:44:59.392Z,18.58
2022-12-11T20:47:29.077Z,18.48
2022-12-11T20:49:58.607Z,18.39
2022-12-11T20:52:29.436Z,18.39
2022-12-11T20:54:59.095Z,18.36
2022-12-11T20:57:28.695Z,18.34
2022-12-11T21:00:00.443Z,18.36
2022-12-11T21:02:31.910Z,18.30
2022-12-11T21:05:01.757Z,18.29
2022-12-11T21:07:31.241Z,18.32
2022-12-11T21:10:00.794Z,18.29
2022-12-11T21:12:31.786Z,18.26
2022-12-11T21:15:01.577Z,18.24
2022-12-11T21:17:31.268Z,18.25
2022-12-11T21:20:01.016Z,18.23
2022-12-11T21:22:30.487Z,18.19
2022-12-11T21:25:00.164Z,18.18
2022-12-11T21:27:29.803Z,18.17
2022-12-11T21:29:59.312Z,18.13
2022-12-11T21:32:31.312Z,18.18
2022-12-11T21:35:01.207Z,18.12
2022-12-11T21:37:30.734Z,18.09
2022-12-11T21:40:01.438Z,18.05
2022-12-11T21:42:31.336Z,18.09
2022-12-11T21:47:50.723Z,18.03
2022-12-11T21:50:20.731Z,18.02
2022-12-11T21:52:51.542Z,17.99
2022-12-11T21:55:21.452Z,17.97
2022-12-11T21:57:51.888Z,17.95
2022-12-11T22:00:21.930Z,17.90
2022-12-11T22:02:51.802Z,17.83
2022-12-11T22:05:21.474Z,17.79
2022-12-11T22:07:51.360Z,17.73
2022-12-11T22:10:20.980Z,17.70
2022-12-11T22:12:50.748Z,17.70
2022-12-11T22:15:20.525Z,17.70
2022-12-11T22:17:49.870Z,17.71
2022-12-11T22:20:19.873Z,17.61
2022-12-11T22:22:49.548Z,17.63
2022-12-11T22:25:19.342Z,17.61
2022-12-11T22:27:49.273Z,17.60
2022-12-11T22:30:18.918Z,17.53
2022-12-11T22:32:50.724Z,17.50
2022-12-11T22:35:25.556Z,17.47
2022-12-11T22:37:56.975Z,17.40
2022-12-11T22:40:27.737Z,17.34
2022-12-11T22:42:58.663Z,17.37
2022-12-11T22:45:28.506Z,17.31
2022-12-11T22:47:58.245Z,17.21
2022-12-11T22:50:27.873Z,17.26
2022-12-11T22:52:57.490Z,17.18
2022-12-11T22:55:27.323Z,17.12
2022-12-11T22:57:57.104Z,17.14
2022-12-11T23:00:26.920Z,17.05
2022-12-11T23:02:57.013Z,17.03
2022-12-11T23:05:26.740Z,17.03
2022-12-11T23:07:56.644Z,17.03
2022-12-11T23:10:26.385Z,16.92
2022-12-11T23:12:56.199Z,16.74
2022-12-11T23:15:25.841Z,16.82
2022-12-11T23:17:55.174Z,16.80
2022-12-11T23:20:25.257Z,16.83
2022-12-11T23:22:57.207Z,16.73
2022-12-11T23:25:28.956Z,16.75
2022-12-11T23:27:59.124Z,16.76
2022-12-11T23:30:28.985Z,16.73
2022-12-11T23:32:58.521Z,16.64
2022-12-11T23:35:28.093Z,16.64
2022-12-11T23:37:58.059Z,16.69
2022-12-11T23:40:27.665Z,16.60
2022-12-11T23:42:56.953Z,16.63
2022-12-11T23:45:26.748Z,16.65
2022-12-11T23:47:56.942Z,16.62
2022-12-11T23:50:27.842Z,16.52
2022-12-11T23:52:57.501Z,16.50
2022-12-11T23:55:26.970Z,16.46
2022-12-11T23:57:56.797Z,16.39
